Terminal Aerodrome Forecast
Issued by NWS

Home | Current Version | Previous Version | Text Only | Print | Product List | Glossary On
Versions: 1 2 3 4 5 6 7 8 9 10 11 12 13 14 15 16 17 18 19 20
000
FTUS43 KMQT 131137
TAFCMX
TAF
KCMX 131137Z 1312/1412 12009KT 2SM -SHSN OVC030
     FM131400 12009KT 2SM -SHSN OVC025
     FM131500 10009KT 2SM -SHSN OVC020
     FM131800 08008KT 1 1/2SM -SHSN OVC015
     FM132100 04011G18KT 2SM -SHSN BKN020
     FM140300 36012G20KT 4SM -SHSN BKN015
     FM140900 33008G15KT 6SM -SHSN BKN020=

USA.gov is the U.S. government's official web portal to all federal, state and local government web resources and services.